Athol, Idaho
Current Conditions -  °F | °C
As of 7:35 PM on Friday 24 Oct 2014 (Local Time) from KCOE Reporting Station
Clear Clear  
Wind Chill: 44°   Ceiling: Unl
Heat Index: 48°   Visibility: 10mi
Dew Point: 41°   Wind: 10mph
Humidity: 76%   Direction: 20°NNE
Pressure: 30.01"   Gusts: NA
Location:  47.95°N, 116.71°W
Report Text: KCOE 250235Z AUTO 02009KT 10SM CLR 09/05 A3001 RMK AO1
Loading
Personal Weather Stations






























Interactive Weather Map
Tropical Storm Tracking
New forecast layout! Learn more

10-Day Weather Forecast

Advertisements
Track Severe Weather on mobile